createdAt,value
2018-12-04T00:00:17.158Z,10.94
2018-12-04T00:01:17.156Z,10.94
2018-12-04T00:02:17.251Z,10.94
2018-12-04T00:03:17.103Z,10.94
2018-12-04T00:04:17.148Z,10.94
2018-12-04T00:05:17.100Z,10.94
2018-12-04T00:06:17.137Z,10.88
2018-12-04T00:07:17.166Z,10.88
2018-12-04T00:08:17.192Z,10.94
2018-12-04T00:09:17.110Z,10.88
2018-12-04T00:10:17.084Z,10.94
2018-12-04T00:11:17.071Z,10.88
2018-12-04T00:12:17.250Z,10.81
2018-12-04T00:13:17.121Z,10.88
2018-12-04T00:14:17.159Z,10.88
2018-12-04T00:15:17.162Z,10.88
2018-12-04T00:16:17.126Z,10.88
2018-12-04T00:17:17.202Z,10.88
2018-12-04T00:18:17.396Z,10.81
2018-12-04T00:19:17.235Z,10.88
2018-12-04T00:20:17.171Z,10.81
2018-12-04T00:21:17.280Z,10.81
2018-12-04T00:22:17.082Z,10.81
2018-12-04T00:23:17.177Z,10.81
2018-12-04T00:24:17.129Z,10.81
2018-12-04T00:25:17.394Z,10.81
2018-12-04T00:26:17.139Z,10.75
2018-12-04T00:27:17.064Z,10.81
2018-12-04T00:28:17.161Z,10.81
2018-12-04T00:29:17.094Z,10.81
2018-12-04T00:30:17.158Z,10.81
2018-12-04T00:31:17.215Z,10.81
2018-12-04T00:32:17.205Z,10.81
2018-12-04T00:33:17.225Z,10.81
2018-12-04T00:34:17.149Z,10.75
2018-12-04T00:35:17.213Z,10.81
2018-12-04T00:36:17.152Z,10.75
2018-12-04T00:37:17.083Z,10.81
2018-12-04T00:38:17.580Z,10.81
2018-12-04T00:39:17.136Z,10.75
2018-12-04T00:40:17.139Z,10.75
2018-12-04T00:41:17.248Z,10.75
2018-12-04T00:42:17.324Z,10.75
2018-12-04T00:43:17.165Z,10.75
2018-12-04T00:44:17.157Z,10.75
2018-12-04T00:45:17.096Z,10.69
2018-12-04T00:46:17.108Z,10.75
2018-12-04T00:47:16.987Z,10.69
2018-12-04T00:48:17.162Z,10.75
2018-12-04T00:49:17.100Z,10.75
2018-12-04T00:50:17.147Z,10.75
2018-12-04T00:51:17.048Z,10.69
2018-12-04T00:52:17.217Z,10.75
2018-12-04T00:53:17.316Z,10.75
2018-12-04T00:54:17.377Z,10.75
2018-12-04T00:55:17.027Z,10.75
2018-12-04T00:56:17.181Z,10.81
2018-12-04T00:57:17.231Z,10.75
2018-12-04T00:58:17.132Z,10.75
2018-12-04T00:59:17.297Z,10.75
2018-12-04T01:00:17.656Z,10.75
2018-12-04T01:01:17.021Z,10.75
2018-12-04T01:02:17.314Z,10.81
2018-12-04T01:03:17.186Z,10.75
2018-12-04T01:04:17.066Z,10.81
2018-12-04T01:05:17.045Z,10.81
2018-12-04T01:06:17.842Z,10.75
2018-12-04T01:07:17.130Z,10.75
2018-12-04T01:08:17.129Z,10.81
2018-12-04T01:09:17.037Z,10.81
2018-12-04T01:10:17.457Z,10.75
2018-12-04T01:11:17.000Z,10.81
2018-12-04T01:12:17.271Z,10.75
2018-12-04T01:13:17.188Z,10.81
2018-12-04T01:14:17.307Z,10.81
2018-12-04T01:15:17.270Z,10.75
2018-12-04T01:16:17.220Z,10.75
2018-12-04T01:17:16.955Z,10.75
2018-12-04T01:18:16.989Z,10.75
2018-12-04T01:19:17.090Z,10.75
2018-12-04T01:20:16.985Z,10.75
2018-12-04T01:21:17.086Z,10.75
2018-12-04T01:22:17.225Z,10.75
2018-12-04T01:23:17.116Z,10.75
2018-12-04T01:24:17.234Z,10.75
2018-12-04T01:25:17.140Z,10.75
2018-12-04T01:26:17.161Z,10.75
2018-12-04T01:27:17.255Z,10.75
2018-12-04T01:28:17.091Z,10.75
2018-12-04T01:29:17.055Z,10.75
2018-12-04T01:30:17.455Z,10.81
2018-12-04T01:31:17.571Z,10.75
2018-12-04T01:32:17.207Z,10.75
2018-12-04T01:33:17.133Z,10.75
2018-12-04T01:34:16.971Z,10.75
2018-12-04T01:35:17.150Z,10.75
2018-12-04T01:36:17.122Z,10.75
2018-12-04T01:37:17.266Z,10.75
2018-12-04T01:38:16.998Z,10.75
2018-12-04T01:39:17.007Z,10.75
2018-12-04T01:40:16.976Z,10.75
2018-12-04T01:41:17.021Z,10.75
2018-12-04T01:42:16.991Z,10.75
2018-12-04T01:43:17.047Z,10.81
2018-12-04T01:44:16.987Z,10.75
2018-12-04T01:45:16.944Z,10.75
2018-12-04T01:46:16.988Z,10.75
2018-12-04T01:47:16.924Z,10.75
2018-12-04T01:48:17.295Z,10.75
2018-12-04T01:49:16.930Z,10.75
2018-12-04T01:50:16.978Z,10.75
2018-12-04T01:51:16.971Z,10.75
2018-12-04T01:52:16.991Z,10.75
2018-12-04T01:53:17.181Z,10.75
2018-12-04T01:54:16.934Z,10.75
2018-12-04T01:55:16.932Z,10.75
2018-12-04T01:56:17.006Z,10.75
2018-12-04T01:57:17.097Z,10.75
2018-12-04T01:58:16.956Z,10.75
2018-12-04T01:59:16.963Z,10.75
2018-12-04T02:00:17.212Z,10.75
2018-12-04T02:01:17.245Z,10.81
2018-12-04T02:02:17.040Z,10.75
2018-12-04T02:03:17.211Z,10.81
2018-12-04T02:04:16.996Z,10.81
2018-12-04T02:05:17.142Z,10.81
2018-12-04T02:06:17.009Z,10.81
2018-12-04T02:07:17.414Z,10.81
2018-12-04T02:08:17.233Z,10.81
2018-12-04T02:09:16.961Z,10.81
2018-12-04T02:10:17.169Z,10.81
2018-12-04T02:11:17.801Z,10.81
2018-12-04T02:12:17.109Z,10.88
2018-12-04T02:13:17.046Z,10.81
2018-12-04T02:14:17.018Z,10.81
2018-12-04T02:15:16.939Z,10.81
2018-12-04T02:16:16.876Z,10.88
2018-12-04T02:17:16.921Z,10.81
2018-12-04T02:18:17.112Z,10.81
2018-12-04T02:19:17.004Z,10.81
2018-12-04T02:20:16.873Z,10.81
2018-12-04T02:21:17.015Z,10.88
2018-12-04T02:22:16.940Z,10.81
2018-12-04T02:23:16.938Z,10.81
2018-12-04T02:24:16.987Z,10.81
2018-12-04T02:25:16.964Z,10.81
2018-12-04T02:26:16.917Z,10.81
2018-12-04T02:27:17.085Z,10.81
2018-12-04T02:28:17.185Z,10.81
2018-12-04T02:29:17.033Z,10.81
2018-12-04T02:30:16.997Z,10.81
2018-12-04T02:31:16.901Z,10.81
2018-12-04T02:32:17.177Z,10.75
2018-12-04T02:33:16.881Z,10.81
2018-12-04T02:34:17.088Z,10.75
2018-12-04T02:35:17.403Z,10.75
2018-12-04T02:36:17.004Z,10.75
2018-12-04T02:37:17.119Z,10.75
2018-12-04T02:38:17.084Z,10.75
2018-12-04T02:39:16.947Z,10.75
2018-12-04T02:40:17.253Z,10.75
2018-12-04T02:41:17.233Z,10.75
2018-12-04T02:42:17.131Z,10.75
2018-12-04T02:43:16.913Z,10.69
2018-12-04T02:44:16.918Z,10.75
2018-12-04T02:45:17.151Z,10.69
2018-12-04T02:46:17.161Z,10.69
2018-12-04T02:47:17.043Z,10.69
2018-12-04T02:48:16.867Z,10.69
2018-12-04T02:49:16.974Z,10.69
2018-12-04T02:50:17.232Z,10.69
2018-12-04T02:51:17.026Z,10.75
2018-12-04T02:52:16.944Z,10.69
2018-12-04T02:53:16.960Z,10.75
2018-12-04T02:54:16.947Z,10.75
2018-12-04T02:55:16.867Z,10.69
2018-12-04T02:56:16.921Z,10.69
2018-12-04T02:57:17.067Z,10.75
2018-12-04T02:58:16.872Z,10.75
2018-12-04T02:59:17.148Z,10.69
2018-12-04T03:00:17.311Z,10.69
2018-12-04T03:01:17.062Z,10.69
2018-12-04T03:02:16.981Z,10.75
2018-12-04T03:03:16.845Z,10.69
2018-12-04T03:04:17.034Z,10.75
2018-12-04T03:05:16.899Z,10.69
2018-12-04T03:06:17.099Z,10.69
2018-12-04T03:07:16.924Z,10.69
2018-12-04T03:08:16.921Z,10.75
2018-12-04T03:09:16.894Z,10.75
2018-12-04T03:10:16.867Z,10.75
2018-12-04T03:11:16.919Z,10.75
2018-12-04T03:12:16.882Z,10.75
2018-12-04T03:13:16.854Z,10.75
2018-12-04T03:14:17.074Z,10.75
2018-12-04T03:15:16.886Z,10.69
2018-12-04T03:16:17.173Z,10.75
2018-12-04T03:17:16.883Z,10.69
2018-12-04T03:18:16.860Z,10.75
2018-12-04T03:19:16.862Z,10.69
2018-12-04T03:20:16.904Z,10.75
2018-12-04T03:21:16.875Z,10.69
2018-12-04T03:22:16.844Z,10.69
2018-12-04T03:23:16.796Z,10.69
2018-12-04T03:24:17.096Z,10.69
2018-12-04T03:25:16.877Z,10.69
2018-12-04T03:26:16.934Z,10.69
2018-12-04T03:27:16.852Z,10.69
2018-12-04T03:28:16.881Z,10.69
2018-12-04T03:29:16.853Z,10.69
2018-12-04T03:30:16.895Z,10.69
2018-12-04T03:31:16.863Z,10.69
2018-12-04T03:32:16.895Z,10.69
2018-12-04T03:33:16.869Z,10.69
2018-12-04T03:34:16.835Z,10.69
2018-12-04T03:35:16.886Z,10.69
2018-12-04T03:36:16.938Z,10.69
2018-12-04T03:37:17.148Z,10.69
2018-12-04T03:38:16.817Z,10.69
2018-12-04T03:39:16.893Z,10.63
2018-12-04T03:40:16.813Z,10.69
2018-12-04T03:41:16.897Z,10.63
2018-12-04T03:42:16.812Z,10.69
2018-12-04T03:43:17.127Z,10.69
2018-12-04T03:44:16.824Z,10.63
2018-12-04T03:45:16.935Z,10.69
2018-12-04T03:46:16.853Z,10.63
2018-12-04T03:47:16.949Z,10.63
2018-12-04T03:48:16.889Z,10.63
2018-12-04T03:49:17.029Z,10.63
2018-12-04T03:50:16.924Z,10.63
2018-12-04T03:51:16.888Z,10.63
2018-12-04T03:52:16.908Z,10.56
2018-12-04T03:53:16.990Z,10.63
2018-12-04T03:54:16.898Z,10.56
2018-12-04T03:55:17.160Z,10.56
2018-12-04T03:56:17.028Z,10.63
2018-12-04T03:57:16.982Z,10.63
2018-12-04T03:58:16.821Z,10.63
2018-12-04T03:59:17.014Z,10.56
2018-12-04T04:00:16.936Z,10.56
2018-12-04T04:01:17.133Z,10.56
2018-12-04T04:02:16.915Z,10.56
2018-12-04T04:03:16.877Z,10.5
2018-12-04T04:04:16.810Z,10.56
2018-12-04T04:05:17.096Z,10.5
2018-12-04T04:06:16.844Z,10.5
2018-12-04T04:07:16.845Z,10.5
2018-12-04T04:08:17.116Z,10.5
2018-12-04T04:09:16.887Z,10.5
2018-12-04T04:10:17.640Z,10.5
2018-12-04T04:11:16.875Z,10.44
2018-12-04T04:12:16.823Z,10.5
2018-12-04T04:13:16.794Z,10.44
2018-12-04T04:14:16.929Z,10.44
2018-12-04T04:15:16.814Z,10.44
2018-12-04T04:16:17.066Z,10.44
2018-12-04T04:17:17.001Z,10.44
2018-12-04T04:18:16.758Z,10.38
2018-12-04T04:19:16.746Z,10.44
2018-12-04T04:20:16.848Z,10.38
2018-12-04T04:21:16.825Z,10.38
2018-12-04T04:22:16.840Z,10.38
2018-12-04T04:23:16.869Z,10.38
2018-12-04T04:24:16.793Z,10.38
2018-12-04T04:25:16.826Z,10.38
2018-12-04T04:26:17.269Z,10.38
2018-12-04T04:27:16.889Z,10.38
2018-12-04T04:28:16.835Z,10.38
2018-12-04T04:29:16.799Z,10.38
2018-12-04T04:30:16.959Z,10.38
2018-12-04T04:31:16.817Z,10.31
2018-12-04T04:32:16.865Z,10.31
2018-12-04T04:33:16.906Z,10.31
2018-12-04T04:34:16.800Z,10.31
2018-12-04T04:35:16.766Z,10.31
2018-12-04T04:36:16.793Z,10.31
2018-12-04T04:37:16.855Z,10.31
2018-12-04T04:38:16.912Z,10.25
2018-12-04T04:39:16.859Z,10.31
2018-12-04T04:40:16.723Z,10.25
2018-12-04T04:41:16.929Z,10.25
2018-12-04T04:42:16.765Z,10.25
2018-12-04T04:43:16.777Z,10.25
2018-12-04T04:44:17.193Z,10.25
2018-12-04T04:45:16.941Z,10.25
2018-12-04T04:46:16.934Z,10.25
2018-12-04T04:47:16.769Z,10.25
2018-12-04T04:48:16.711Z,10.31
2018-12-04T04:49:16.748Z,10.25
2018-12-04T04:50:16.769Z,10.25
2018-12-04T04:51:16.797Z,10.25
2018-12-04T04:52:16.752Z,10.31
2018-12-04T04:53:16.709Z,10.31
2018-12-04T04:54:17.080Z,10.25
2018-12-04T04:55:16.743Z,10.25
2018-12-04T04:56:16.733Z,10.25
2018-12-04T04:57:16.747Z,10.31
2018-12-04T04:58:16.768Z,10.25
2018-12-04T04:59:16.718Z,10.31
2018-12-04T05:00:16.829Z,10.25
2018-12-04T05:01:16.930Z,10.31
2018-12-04T05:02:16.725Z,10.25
2018-12-04T05:03:16.745Z,10.25
2018-12-04T05:04:16.847Z,10.31
2018-12-04T05:05:16.713Z,10.31
2018-12-04T05:06:16.936Z,10.31
2018-12-04T05:07:16.695Z,10.31
2018-12-04T05:08:16.694Z,10.31
2018-12-04T05:09:16.700Z,10.31
2018-12-04T05:10:16.717Z,10.31
2018-12-04T05:11:16.827Z,10.31
2018-12-04T05:12:17.313Z,10.31
2018-12-04T05:13:16.863Z,10.31
2018-12-04T05:14:16.819Z,10.25
2018-12-04T05:15:16.774Z,10.31
2018-12-04T05:16:16.845Z,10.31
2018-12-04T05:17:16.872Z,10.31
2018-12-04T05:18:16.761Z,10.25
2018-12-04T05:19:16.832Z,10.25
2018-12-04T05:20:16.834Z,10.25
2018-12-04T05:21:16.713Z,10.25
2018-12-04T05:22:16.798Z,10.25
2018-12-04T05:23:16.922Z,10.25
2018-12-04T05:24:17.228Z,10.25
2018-12-04T05:25:16.664Z,10.25
2018-12-04T05:26:16.793Z,10.25
2018-12-04T05:27:16.744Z,10.19
2018-12-04T05:28:16.823Z,10.25
2018-12-04T05:29:16.694Z,10.25
2018-12-04T05:30:16.718Z,10.19
2018-12-04T05:31:16.765Z,10.19
2018-12-04T05:32:16.672Z,10.19
2018-12-04T05:33:16.741Z,10.19
2018-12-04T05:34:16.720Z,10.13
2018-12-04T05:35:17.374Z,10.19
2018-12-04T05:36:16.844Z,10.13
2018-12-04T05:37:17.099Z,10.19
2018-12-04T05:38:16.856Z,10.13
2018-12-04T05:39:16.633Z,10.13
2018-12-04T05:40:16.687Z,10.13
2018-12-04T05:41:16.918Z,10.13
2018-12-04T05:42:16.910Z,10.13
2018-12-04T05:43:16.864Z,10.13
2018-12-04T05:44:19.723Z,10.13
2018-12-04T05:45:16.855Z,10.13
2018-12-04T05:46:16.844Z,10.13
2018-12-04T05:47:16.827Z,10.13
2018-12-04T05:48:16.710Z,10.13
2018-12-04T05:49:16.810Z,10.13
2018-12-04T05:50:16.621Z,10.13
2018-12-04T05:51:16.667Z,10.13
2018-12-04T05:52:16.993Z,10.13
2018-12-04T05:53:17.010Z,10.13
2018-12-04T05:54:16.823Z,10.13
2018-12-04T05:55:16.691Z,10.13
2018-12-04T05:56:16.653Z,10.13
2018-12-04T05:57:16.898Z,10.13
2018-12-04T05:58:16.801Z,10.13
2018-12-04T05:59:16.795Z,10.06
2018-12-04T06:00:16.649Z,10.06
2018-12-04T06:01:16.705Z,10.06
2018-12-04T06:02:16.796Z,10.13
2018-12-04T06:03:16.976Z,10.06
2018-12-04T06:04:16.690Z,10.13
2018-12-04T06:05:17.056Z,10.06
2018-12-04T06:06:16.928Z,10.06
2018-12-04T06:07:16.707Z,10.13
2018-12-04T06:08:16.901Z,10.06
2018-12-04T06:09:16.623Z,10.06
2018-12-04T06:10:17.435Z,10.13
2018-12-04T06:11:16.671Z,10.13
2018-12-04T06:12:16.628Z,10.06
2018-12-04T06:13:16.601Z,10.06
2018-12-04T06:14:16.709Z,10.06
2018-12-04T06:15:16.739Z,10.06
2018-12-04T06:16:16.630Z,10.06
2018-12-04T06:17:16.800Z,10.06
2018-12-04T06:18:16.725Z,10.06
2018-12-04T06:19:16.622Z,10.06
2018-12-04T06:20:16.786Z,10
2018-12-04T06:21:16.689Z,10
2018-12-04T06:22:16.830Z,10
2018-12-04T06:23:16.655Z,10
2018-12-04T06:24:16.694Z,10.06
2018-12-04T06:25:16.653Z,10.06
2018-12-04T06:26:16.673Z,10
2018-12-04T06:27:16.692Z,10
2018-12-04T06:28:16.622Z,10
2018-12-04T06:29:16.586Z,10.06
2018-12-04T06:30:17.027Z,10
2018-12-04T06:31:16.690Z,10
2018-12-04T06:32:16.633Z,9.94
2018-12-04T06:33:16.638Z,9.88
2018-12-04T06:34:16.648Z,9.88
2018-12-04T06:35:16.571Z,9.88
2018-12-04T06:36:16.576Z,9.88
2018-12-04T06:37:16.650Z,9.88
2018-12-04T06:38:16.658Z,9.94
2018-12-04T06:39:16.596Z,9.88
2018-12-04T06:40:16.604Z,9.88
2018-12-04T06:41:16.584Z,9.88
2018-12-04T06:42:16.571Z,9.88
2018-12-04T06:43:16.613Z,9.88
2018-12-04T06:44:16.631Z,9.81
2018-12-04T06:45:16.569Z,9.81
2018-12-04T06:46:16.635Z,9.75
2018-12-04T06:47:16.627Z,9.75
2018-12-04T06:48:16.664Z,9.75
2018-12-04T06:49:16.638Z,9.75
2018-12-04T06:50:18.575Z,9.75
2018-12-04T06:51:16.572Z,9.75
2018-12-04T06:52:16.638Z,9.75
2018-12-04T06:53:16.784Z,9.69
2018-12-04T06:54:16.721Z,9.69
2018-12-04T06:55:16.576Z,9.69
2018-12-04T06:56:16.621Z,9.69
2018-12-04T06:57:16.746Z,9.63
2018-12-04T06:58:16.677Z,9.69
2018-12-04T06:59:16.869Z,9.63
2018-12-04T07:00:16.582Z,9.63
2018-12-04T07:01:16.621Z,9.63
2018-12-04T07:02:16.599Z,9.63
2018-12-04T07:03:16.733Z,9.69
2018-12-04T07:04:16.611Z,9.63
2018-12-04T07:05:16.731Z,9.63
2018-12-04T07:06:16.592Z,9.63
2018-12-04T07:07:16.911Z,9.63
2018-12-04T07:08:16.627Z,9.63
2018-12-04T07:09:16.627Z,9.63
2018-12-04T07:10:16.568Z,9.63
2018-12-04T07:11:16.645Z,9.63
2018-12-04T07:12:16.719Z,9.63
2018-12-04T07:13:16.709Z,9.63
2018-12-04T07:14:16.533Z,9.63
2018-12-04T07:15:16.858Z,9.63
2018-12-04T07:16:16.941Z,9.63
2018-12-04T07:17:16.628Z,9.56
2018-12-04T07:18:16.816Z,9.56
2018-12-04T07:19:16.713Z,9.56
2018-12-04T07:20:16.635Z,9.56
2018-12-04T07:21:16.556Z,9.56
2018-12-04T07:22:16.617Z,9.5
2018-12-04T07:23:16.642Z,9.56
2018-12-04T07:24:16.663Z,9.5
2018-12-04T07:25:17.427Z,9.56
2018-12-04T07:26:16.612Z,9.5
2018-12-04T07:27:17.044Z,9.56
2018-12-04T07:28:16.553Z,9.5
2018-12-04T07:29:16.712Z,9.5
2018-12-04T07:30:16.574Z,9.5
2018-12-04T07:31:16.706Z,9.5
2018-12-04T07:32:16.550Z,9.5
2018-12-04T07:33:16.509Z,9.5
2018-12-04T07:34:16.770Z,9.5
2018-12-04T07:35:16.599Z,9.5
2018-12-04T07:36:16.917Z,9.5
2018-12-04T07:37:16.530Z,9.5
2018-12-04T07:38:16.608Z,9.5
2018-12-04T07:39:16.499Z,9.44
2018-12-04T07:40:16.617Z,9.5
2018-12-04T07:41:16.671Z,9.5
2018-12-04T07:42:16.622Z,9.5
2018-12-04T07:43:16.670Z,9.5
2018-12-04T07:44:16.736Z,9.44
2018-12-04T07:45:16.607Z,9.5
2018-12-04T07:46:16.646Z,9.5
2018-12-04T07:47:16.771Z,9.5
2018-12-04T07:48:16.702Z,9.5
2018-12-04T07:49:16.604Z,9.56
2018-12-04T07:50:16.580Z,9.56
2018-12-04T07:51:16.805Z,9.56
2018-12-04T07:52:16.685Z,9.56
2018-12-04T07:53:16.696Z,9.56
2018-12-04T07:54:16.666Z,9.56
2018-12-04T07:55:16.576Z,9.5
2018-12-04T07:56:16.631Z,9.56
2018-12-04T07:57:16.482Z,9.56
2018-12-04T07:58:16.658Z,9.56
2018-12-04T07:59:16.768Z,9.56
2018-12-04T08:00:16.693Z,9.56
2018-12-04T08:01:16.488Z,9.56
2018-12-04T08:02:16.495Z,9.56
2018-12-04T08:03:16.709Z,9.56
2018-12-04T08:04:16.673Z,9.56
2018-12-04T08:05:16.604Z,9.63
2018-12-04T08:06:16.542Z,9.63
2018-12-04T08:07:16.498Z,9.63
2018-12-04T08:08:16.452Z,9.56
2018-12-04T08:09:16.502Z,9.63
2018-12-04T08:10:16.474Z,9.63
2018-12-04T08:11:16.459Z,9.63
2018-12-04T08:12:16.451Z,9.69
2018-12-04T08:13:16.578Z,9.63
2018-12-04T08:14:16.518Z,9.69
2018-12-04T08:15:16.422Z,9.69
2018-12-04T08:16:16.510Z,9.69
2018-12-04T08:17:16.912Z,9.69
2018-12-04T08:18:16.508Z,9.69
2018-12-04T08:19:16.449Z,9.69
2018-12-04T08:20:16.518Z,9.63
2018-12-04T08:21:16.480Z,9.69
2018-12-04T08:22:16.535Z,9.69
2018-12-04T08:23:16.473Z,9.69
2018-12-04T08:24:16.709Z,9.69
2018-12-04T08:25:16.512Z,9.63
2018-12-04T08:26:16.502Z,9.69
2018-12-04T08:27:16.659Z,9.63
2018-12-04T08:28:16.522Z,9.69
2018-12-04T08:29:16.450Z,9.69
2018-12-04T08:30:16.537Z,9.69
2018-12-04T08:31:16.462Z,9.69
2018-12-04T08:32:16.537Z,9.69
2018-12-04T08:33:16.561Z,9.63
2018-12-04T08:34:16.656Z,9.69
2018-12-04T08:35:16.514Z,9.69
2018-12-04T08:36:16.541Z,9.69
2018-12-04T08:37:16.687Z,9.75
2018-12-04T08:38:16.426Z,9.75
2018-12-04T08:39:16.503Z,9.81
2018-12-04T08:40:16.641Z,9.81
2018-12-04T08:41:16.424Z,9.81
2018-12-04T08:42:16.582Z,9.81
2018-12-04T08:43:16.586Z,9.81
2018-12-04T08:44:16.740Z,9.81
2018-12-04T08:45:16.483Z,9.88
2018-12-04T08:46:16.557Z,9.81
2018-12-04T08:47:17.308Z,9.88
2018-12-04T08:48:17.187Z,9.88
2018-12-04T08:49:16.714Z,9.88
2018-12-04T08:50:16.537Z,9.88
2018-12-04T08:51:16.499Z,9.88
2018-12-04T08:52:16.482Z,9.94
2018-12-04T08:53:16.593Z,9.94
2018-12-04T08:54:16.443Z,9.94
2018-12-04T08:55:16.464Z,9.88
2018-12-04T08:56:16.894Z,9.94
2018-12-04T08:57:16.670Z,9.94
2018-12-04T08:58:16.651Z,9.88
2018-12-04T08:59:16.579Z,9.88
2018-12-04T09:00:16.411Z,9.88
2018-12-04T09:01:16.494Z,9.88
2018-12-04T09:02:16.893Z,9.88
2018-12-04T09:03:16.526Z,9.88
2018-12-04T09:04:16.519Z,9.88
2018-12-04T09:05:16.912Z,9.88
2018-12-04T09:06:16.427Z,9.94
2018-12-04T09:07:17.251Z,9.88
2018-12-04T09:08:16.565Z,9.88
2018-12-04T09:09:16.406Z,9.88
2018-12-04T09:10:16.591Z,9.88
2018-12-04T09:11:16.596Z,9.88
2018-12-04T09:12:16.506Z,9.88
2018-12-04T09:13:16.439Z,9.81
2018-12-04T09:14:16.527Z,9.88
2018-12-04T09:15:16.577Z,9.88
2018-12-04T09:16:16.563Z,9.81
2018-12-04T09:17:16.438Z,9.88
2018-12-04T09:18:16.760Z,9.81
2018-12-04T09:19:16.585Z,9.88
2018-12-04T09:20:17.674Z,9.88
2018-12-04T09:21:16.751Z,9.88
2018-12-04T09:22:16.716Z,9.81
2018-12-04T09:23:16.728Z,9.88
2018-12-04T09:24:17.156Z,9.81
2018-12-04T09:25:16.604Z,9.81
2018-12-04T09:26:17.084Z,9.75
2018-12-04T09:27:16.812Z,9.75
2018-12-04T09:28:16.850Z,9.81
2018-12-04T09:29:16.863Z,9.81
2018-12-04T09:30:16.826Z,9.75
2018-12-04T09:31:16.590Z,9.75
2018-12-04T09:32:16.538Z,9.69
2018-12-04T09:33:16.815Z,9.69
2018-12-04T09:34:16.873Z,9.63
2018-12-04T09:35:16.378Z,9.69
2018-12-04T09:36:17.256Z,9.56
2018-12-04T09:37:16.846Z,9.56
2018-12-04T09:38:16.436Z,9.5
2018-12-04T09:39:16.384Z,9.5
2018-12-04T09:40:16.372Z,9.56
2018-12-04T09:41:16.776Z,9.5
2018-12-04T09:42:16.346Z,9.5
2018-12-04T09:43:16.341Z,9.44
2018-12-04T09:44:16.387Z,9.44
2018-12-04T09:45:16.352Z,9.44
2018-12-04T09:46:16.972Z,9.44
2018-12-04T09:47:17.085Z,9.38
2018-12-04T09:48:16.422Z,9.44
2018-12-04T09:49:16.342Z,9.38
2018-12-04T09:50:17.217Z,9.38
2018-12-04T09:51:16.408Z,9.38
2018-12-04T09:52:16.310Z,9.38
2018-12-04T09:53:16.351Z,9.38
2018-12-04T09:54:16.430Z,9.44
2018-12-04T09:55:16.326Z,9.44
2018-12-04T09:56:16.351Z,9.44
2018-12-04T09:57:16.330Z,9.5
2018-12-04T09:58:16.336Z,9.5
2018-12-04T09:59:16.724Z,9.56
2018-12-04T10:00:16.369Z,9.56
2018-12-04T10:01:16.378Z,9.56
2018-12-04T10:02:16.370Z,9.56
2018-12-04T10:03:16.733Z,9.63
2018-12-04T10:04:16.304Z,9.63
2018-12-04T10:05:16.413Z,9.63
2018-12-04T10:06:16.467Z,9.63
2018-12-04T10:07:16.521Z,9.56
2018-12-04T10:08:16.370Z,9.63
2018-12-04T10:09:16.375Z,9.56
2018-12-04T10:10:16.386Z,9.56
2018-12-04T10:11:16.596Z,9.63
2018-12-04T10:12:16.421Z,9.56
2018-12-04T10:13:16.474Z,9.63
2018-12-04T10:14:16.602Z,9.56
2018-12-04T10:15:17.157Z,9.63
2018-12-04T10:16:16.543Z,9.63
2018-12-04T10:17:16.433Z,9.69
2018-12-04T10:18:16.339Z,9.75
2018-12-04T10:19:16.459Z,9.75
2018-12-04T10:20:16.774Z,9.75
2018-12-04T10:21:16.312Z,9.81
2018-12-04T10:22:16.798Z,9.81
2018-12-04T10:23:16.393Z,9.81
2018-12-04T10:24:16.610Z,9.81
2018-12-04T10:25:16.918Z,9.81
2018-12-04T10:26:16.553Z,9.81
2018-12-04T10:27:16.539Z,9.75
2018-12-04T10:28:16.449Z,9.75
2018-12-04T10:29:16.657Z,9.75
2018-12-04T10:30:16.602Z,9.81
2018-12-04T10:31:16.771Z,9.75
2018-12-04T10:32:16.631Z,9.75
2018-12-04T10:33:18.735Z,9.81
2018-12-04T10:34:16.347Z,9.75
2018-12-04T10:35:16.658Z,9.69
2018-12-04T10:36:16.652Z,9.69
2018-12-04T10:37:16.494Z,9.69
2018-12-04T10:38:16.535Z,9.69
2018-12-04T10:39:16.277Z,9.69
2018-12-04T10:40:16.643Z,9.69
2018-12-04T10:41:16.547Z,9.69
2018-12-04T10:42:16.436Z,9.69
2018-12-04T10:43:16.288Z,9.69
2018-12-04T10:44:16.495Z,9.69
2018-12-04T10:45:16.396Z,9.56
2018-12-04T10:46:16.468Z,9.5
2018-12-04T10:47:16.492Z,9.44
2018-12-04T10:48:16.334Z,9.44
2018-12-04T10:49:16.674Z,9.25
2018-12-04T10:50:16.346Z,9.25
2018-12-04T10:51:16.344Z,9.25
2018-12-04T10:52:16.480Z,9.19
2018-12-04T10:53:16.345Z,9.25
2018-12-04T10:54:17.174Z,9.13
2018-12-04T10:55:16.380Z,9
2018-12-04T10:56:16.303Z,9
2018-12-04T10:57:16.545Z,8.94
2018-12-04T10:58:16.610Z,8.88
2018-12-04T10:59:16.522Z,8.94
2018-12-04T11:00:16.585Z,9
2018-12-04T11:01:16.589Z,9
2018-12-04T11:02:16.523Z,8.94
2018-12-04T11:03:16.299Z,8.88
2018-12-04T11:04:16.563Z,8.88
2018-12-04T11:05:16.241Z,8.81
2018-12-04T11:06:17.240Z,8.88
2018-12-04T11:07:16.286Z,8.81
2018-12-04T11:08:16.233Z,8.81
2018-12-04T11:09:16.497Z,8.75
2018-12-04T11:10:16.451Z,8.75
2018-12-04T11:11:16.449Z,8.75
2018-12-04T11:12:17.181Z,8.69
2018-12-04T11:13:17.295Z,8.75
2018-12-04T11:14:16.553Z,8.75
2018-12-04T11:15:16.290Z,8.69
2018-12-04T11:16:17.194Z,8.69
2018-12-04T11:17:16.227Z,8.69
2018-12-04T11:18:17.209Z,8.75
2018-12-04T11:19:17.405Z,8.75
2018-12-04T11:20:19.190Z,8.75
2018-12-04T11:21:16.668Z,8.69
2018-12-04T11:22:19.020Z,8.69
2018-12-04T11:23:16.295Z,8.63
2018-12-04T11:24:16.257Z,8.63
2018-12-04T11:25:16.306Z,8.56
2018-12-04T11:26:16.284Z,8.63
2018-12-04T11:27:16.269Z,8.56
2018-12-04T11:28:16.330Z,8.56
2018-12-04T11:29:16.398Z,8.56
2018-12-04T11:30:16.240Z,8.56
2018-12-04T11:31:16.222Z,8.63
2018-12-04T11:32:16.228Z,8.56
2018-12-04T11:33:16.301Z,8.56
2018-12-04T11:34:16.206Z,8.63
2018-12-04T11:35:16.236Z,8.63
2018-12-04T11:36:16.398Z,8.56
2018-12-04T11:37:16.283Z,8.63
2018-12-04T11:38:16.260Z,8.63
2018-12-04T11:39:16.344Z,8.63
2018-12-04T11:40:16.283Z,8.63
2018-12-04T11:41:16.256Z,8.69
2018-12-04T11:42:16.435Z,8.69
2018-12-04T11:43:16.207Z,8.75
2018-12-04T11:44:16.497Z,8.75
2018-12-04T11:45:16.374Z,8.75
2018-12-04T11:46:16.229Z,8.75
2018-12-04T11:47:16.565Z,8.81
2018-12-04T11:48:16.443Z,8.81
2018-12-04T11:49:16.719Z,8.81
2018-12-04T11:50:16.699Z,8.81
2018-12-04T11:51:16.537Z,8.75
2018-12-04T11:52:16.365Z,8.75
2018-12-04T11:53:16.289Z,8.81
2018-12-04T11:54:17.076Z,8.75
2018-12-04T11:55:16.548Z,8.81
2018-12-04T11:56:16.567Z,8.75
2018-12-04T11:57:16.274Z,8.81
2018-12-04T11:58:16.487Z,8.75
2018-12-04T11:59:16.442Z,8.75
2018-12-04T12:00:16.320Z,8.75
2018-12-04T12:01:16.553Z,8.75
2018-12-04T12:02:16.233Z,8.69
2018-12-04T12:03:16.336Z,8.75
2018-12-04T12:04:16.260Z,8.75
2018-12-04T12:05:16.251Z,8.75
2018-12-04T12:06:16.489Z,8.75
2018-12-04T12:07:20.983Z,8.69
2018-12-04T12:08:16.179Z,8.75
2018-12-04T12:09:16.340Z,8.75
2018-12-04T12:10:16.447Z,8.69
2018-12-04T12:11:16.462Z,8.69
2018-12-04T12:12:16.365Z,8.75
2018-12-04T12:13:17.044Z,8.75
2018-12-04T12:14:16.451Z,8.75
2018-12-04T12:15:19.935Z,8.75
2018-12-04T12:16:16.194Z,8.75
2018-12-04T12:17:16.163Z,8.69
2018-12-04T12:18:16.375Z,8.69
2018-12-04T12:19:16.314Z,8.69
2018-12-04T12:20:16.186Z,8.63
2018-12-04T12:21:16.241Z,8.69
2018-12-04T12:22:16.276Z,8.69
2018-12-04T12:23:16.466Z,8.69
2018-12-04T12:24:16.449Z,8.69
2018-12-04T12:25:16.205Z,8.63
2018-12-04T12:26:16.324Z,8.63
2018-12-04T12:27:16.197Z,8.63
2018-12-04T12:28:16.955Z,8.69
2018-12-04T12:29:16.536Z,8.69
2018-12-04T12:30:16.704Z,8.69
2018-12-04T12:31:16.296Z,8.75
2018-12-04T12:32:16.329Z,8.81
2018-12-04T12:33:16.345Z,8.81
2018-12-04T12:34:16.419Z,8.88
2018-12-04T12:35:16.228Z,8.88
2018-12-04T12:36:16.297Z,8.81
2018-12-04T12:37:17.054Z,8.81
2018-12-04T12:38:16.329Z,8.81
2018-12-04T12:39:16.220Z,8.75
2018-12-04T12:40:16.296Z,8.75
2018-12-04T12:41:16.321Z,8.75
2018-12-04T12:42:16.235Z,8.69
2018-12-04T12:43:16.382Z,8.75
2018-12-04T12:44:16.215Z,8.75
2018-12-04T12:45:16.302Z,8.69
2018-12-04T12:46:16.289Z,8.63
2018-12-04T12:47:16.313Z,8.63
2018-12-04T12:48:16.344Z,8.63
2018-12-04T12:49:16.142Z,8.56
2018-12-04T12:50:16.976Z,8.63
2018-12-04T12:51:16.232Z,8.56
2018-12-04T12:52:16.169Z,8.63
2018-12-04T12:53:16.315Z,8.56
2018-12-04T12:54:16.294Z,8.63
2018-12-04T12:55:16.186Z,8.63
2018-12-04T12:56:16.225Z,8.69
2018-12-04T12:57:16.197Z,8.75
2018-12-04T12:58:16.192Z,8.75
2018-12-04T12:59:16.150Z,8.81
2018-12-04T13:00:16.139Z,8.75
2018-12-04T13:01:16.113Z,8.81
2018-12-04T13:02:16.323Z,8.81
2018-12-04T13:03:16.308Z,8.81
2018-12-04T13:04:16.178Z,8.88
2018-12-04T13:05:16.332Z,8.88
2018-12-04T13:06:16.195Z,8.94
2018-12-04T13:07:16.234Z,9
2018-12-04T13:08:16.283Z,9.06